• Join FlightAware (Why Join?)
  • Login
  • US Flag 
01:12AM EDT


 

Airport Tracker/Info


-or-


 

Live Flight TrackerFlight Track Log ✈ N832R ✈ 29-Apr-2013 ✈ KPBI - KEKM

Flight Track Log - Related Links

Times and Time Zones

All times are in EDT time to prevent confusion due to time zone crossing. See the N832R flight status page for this flight to view local times or setup timezone preferences in your user account.

Time Position Orientation Groundspeed Altitude Reporting Facility
EDT Latitude Longitude Course Direction KTS MPH feet Rate Location/Type
08:09PM 26.7278 -79.9942 336° Northwest 212 244 6,800  Level Miami Center
08:10PM 26.7983 -80.0056 352° North 189 217 9,600 2,220 Climbing Miami Center
08:11PM 26.8281 -80.0856 293° West 206 237 11,300 1,980 Climbing Miami Center
08:12PM 26.8383 -80.1767 277° West 275 316 13,600 1,320 Climbing Miami Center
08:13PM 26.8550 -80.2772 281° West 317 365 14,000 1,020 Climbing Miami Center
08:14PM 26.9538 -80.3685 336° Northwest  Level FlightAware Approximate
08:14PM 26.9200 -80.3558 313° West 313 360 15,700  Level Miami Center
08:15PM 26.9942 -80.3953 335° Northwest 311 358 18,400 2,700 Climbing Miami Center
08:16PM 27.0725 -80.4328 337° Northwest 311 358 21,200 2,220 Climbing Miami Center
08:17PM 27.1550 -80.4725 337° Northwest 311 358 22,900 960 Climbing Miami Center
08:18PM 27.2347 -80.5383 324° Northwest 329 379 23,200 1,380 Climbing Miami Center
08:19PM 27.3189 -80.5969 328° Northwest 343 395 25,700 2,340 Climbing Miami Center
08:20PM 27.4119 -80.6303 342° North 343 395 27,900 2,040 Climbing Miami Center
08:21PM 27.4967 -80.6636 341° North 333 383 29,800 1,140 Climbing Miami Center
08:22PM 27.5939 -80.6972 343° North 334 384 30,200 1,140 Climbing Miami Center
08:23PM 27.6758 -80.7539 329° Northwest 339 390 32,100 2,040 Climbing Miami Center
08:24PM 27.7475 -80.8128 324° Northwest 339 390 34,300 2,100 Climbing Miami Center
08:25PM 27.8167 -80.8714 323° Northwest 326 375 36,400 1,800 Climbing Miami Center
08:26PM 27.8839 -80.9303 322° Northwest 309 356 37,900 1,260 Climbing Miami Center
08:27PM 27.9469 -80.9936 318° Northwest 304 350 39,000 1,020 Climbing Miami Center
08:28PM 28.0100 -81.0522 321° Northwest 297 342 40,000 960 Climbing Miami Center
08:29PM 28.0789 -81.1206 319° Northwest 302 348 41,000 480 Climbing Miami Center
08:30PM 28.1478 -81.1844 321° Northwest 307 353 41,000  Level Miami Center
08:31PM 28.2167 -81.2531 319° Northwest 318 366 41,000  Level Miami Center
08:32PM 28.2814 -81.3192 318° Northwest 338 389 41,000  Level Miami Center
08:33PM 28.3522 -81.3928 318° Northwest 343 395 41,000  Level Miami Center
08:34PM 28.4289 -81.4739 317° Northwest 343 395 41,000  Level Miami Center
08:35PM 28.5036 -81.5525 317° Northwest 349 402 41,000  Level Miami Center
08:36PM 28.5783 -81.6264 319° Northwest 354 407 41,000  Level Miami Center
08:37PM 28.6725 -81.6778 334° Northwest 359 413 41,000  Level Miami Center
08:38PM 28.7619 -81.6894 353° North 373 429 41,000  Level Jacksonville Center
08:39PM 28.8747 -81.6953 357° North 379 436 41,000  Level Jacksonville Center
08:40PM 28.9856 -81.7106 353° North 390 449 41,000  Level Jacksonville Center
08:41PM 29.0714 -81.7261 351° North 396 456 41,000  Level Jacksonville Center
08:42PM 29.1925 -81.7603 346° North 379 436 41,000  Level Jacksonville Center
08:43PM 29.2994 -81.7947 344° North 384 442 41,000  Level Jacksonville Center
08:44PM 29.4019 -81.8269 345° North 384 442 41,000  Level Jacksonville Center
08:45PM 29.5086 -81.8569 346° North 379 436 41,000  Level Jacksonville Center
08:46PM 29.6133 -81.8844 347° North 379 436 41,000  Level Jacksonville Center
08:47PM 29.7158 -81.9169 345° North 379 436 41,000  Level Jacksonville Center
08:48PM 29.8225 -81.9494 345° North 379 436 41,000  Level Jacksonville Center
08:49PM 29.9272 -81.9794 346° North 379 436 41,000  Level Jacksonville Center
08:50PM 30.0336 -82.0025 349° North 379 436 41,000  Level Jacksonville Center
08:51PM 30.1425 -82.0350 346° North 379 436 41,000  Level Jacksonville Center
08:52PM 30.2472 -82.0678 345° North 384 442 41,000  Level Jacksonville Center
08:53PM 30.3539 -82.0981 346° North 384 442 41,000 240 Level Jacksonville Center
08:54PM 30.4606 -82.1286 346° North 397 457 41,500 600 Climbing Jacksonville Center
08:55PM 30.5506 -82.1642 341° North 374 430 42,300 660 Climbing Jacksonville Center
08:56PM 30.6508 -82.1947 345° North 374 430 42,900 300 Climbing Jacksonville Center
08:57PM 30.7492 -82.2231 346° North 369 425 43,000  Climbing Jacksonville Center
08:58PM 30.8475 -82.2514 346° North 369 425 43,000  Level Jacksonville Center
08:59PM 30.9500 -82.2822 346° North 364 419 43,000  Level Jacksonville Center
09:00PM 31.0481 -82.3156 344° North 364 419 43,000  Level Jacksonville Center
09:02PM 31.2639 -82.3772 346° North 357 411 43,000  Level Atlanta Center
09:03PM 31.3706 -82.4069 347° North 369 425 43,000  Level Atlanta Center
09:04PM 31.4733 -82.4392 345° North 375 432 43,000  Level Atlanta Center
09:05PM 31.5758 -82.4692 346° North 375 432 43,000  Level Atlanta Center
09:06PM 31.6786 -82.5014 345° North 375 432 43,000  Level Atlanta Center
09:07PM 31.7792 -82.5339 345° North 375 432 43,000  Level Atlanta Center
09:08PM 31.8778 -82.5667 344° North 375 432 43,000  Level Atlanta Center
09:09PM 31.9844 -82.5967 347° North 375 432 43,000  Level Atlanta Center
09:10PM 32.0892 -82.6292 345° North 380 437 43,000  Level Atlanta Center
09:11PM 32.1897 -82.6594 346° North 380 437 43,000  Level Atlanta Center
09:12PM 32.2944 -82.6900 346° North 380 437 43,000  Level Atlanta Center
09:13PM 32.3969 -82.7228 345° North 380 437 43,000  Level Atlanta Center
09:14PM 32.5017 -82.7581 344° North 380 437 43,000  Level Atlanta Center
09:15PM 32.5961 -82.7864 346° North 374 430 43,000  Level Atlanta Center
09:16PM 32.6986 -82.8194 345° North 379 436 43,000  Level Atlanta Center
09:17PM 32.8033 -82.8525 345° North 379 436 43,000  Level Atlanta Center
09:18PM 32.9100 -82.8858 345° North 379 436 43,000  Level Atlanta Center
09:19PM 33.0147 -82.9192 345° North 379 436 43,000  Level Atlanta Center
09:20PM 33.1361 -82.9547 346° North 390 449 43,000  Level Atlanta Center
09:21PM 33.2408 -82.9883 345° North 390 449 43,000  Level Atlanta Center
09:22PM 33.3369 -83.0169 346° North 390 449 43,000  Level Atlanta Center
09:23PM 33.4417 -83.0531 344° North 390 449 43,000  Level Atlanta Center
09:24PM 33.5483 -83.0842 346° North 390 449 43,000  Level Atlanta Center
09:25PM 33.6531 -83.1206 344° North 396 456 43,000  Level Atlanta Center
09:26PM 33.7597 -83.1517 346° North 396 456 43,000  Level Atlanta Center
09:27PM 33.8664 -83.1883 344° North 396 456 43,000  Level Atlanta Center
09:28PM 33.9689 -83.2222 345° North 396 456 43,000  Level Atlanta Center
09:29PM 34.0797 -83.2564 346° North 396 456 43,000  Level Atlanta Center
09:30PM 34.1947 -83.2928 345° North 396 456 43,000  Level Atlanta Center
09:31PM 34.3036 -83.3297 344° North 396 456 43,000  Level Atlanta Center
09:32PM 34.4144 -83.3639 346° North 396 456 43,000  Level Atlanta Center
09:33PM 34.5231 -83.4008 344° North 401 461 43,000  Level Atlanta Center
09:34PM 34.6275 -83.4331 346° North 395 455 43,000  Level Atlanta Center
09:35PM 34.7278 -83.4650 345° North 395 455 43,000  Level Atlanta Center
09:36PM 34.8344 -83.5047 343° North 395 455 43,000  Level Atlanta Center
09:37PM 34.9411 -83.5422 344° North 395 455 43,000  Level Atlanta Center
09:38PM 35.0519 -83.5794 345° North 400 460 43,000  Level Atlanta Center
09:39PM 35.1583 -83.6119 346° North 400 460 43,000  Level Atlanta Center
09:40PM 35.2692 -83.6469 346° North 400 460 43,000  Level Atlanta Center
09:41PM 35.3756 -83.6847 344° North 395 455 43,000  Level Atlanta Center
09:42PM 35.4800 -83.7175 346° North 395 455 43,000  Level Atlanta Center
09:43PM 35.5844 -83.7553 344° North 395 455 43,000  Level Atlanta Center
09:44PM 35.6889 -83.7908 345° North 395 455 43,000  Level Atlanta Center
09:45PM 35.7931 -83.8236 346° North 390 449 43,000  Level Atlanta Center
09:48PM 36.0658 -83.9161 345° North 388 447 43,000  Level Indianapolis Center
09:49PM 36.1703 -83.9511 345° North 388 447 43,000  Level Indianapolis Center
09:50PM 36.2742 -83.9869 344° North 389 448 43,000  Level Indianapolis Center
09:51PM 36.3789 -84.0222 345° North 389 448 43,000  Level Indianapolis Center
09:52PM 36.4822 -84.0581 344° North 388 447 43,000  Level Indianapolis Center
09:53PM 36.5944 -84.0969 344° North 387 445 43,000  Level Indianapolis Center
09:54PM 36.6981 -84.1328 345° North 384 442 43,000  Level Indianapolis Center
09:55PM 36.8039 -84.1700 344° North 389 448 43,000  Level Indianapolis Center
09:56PM 36.9081 -84.2061 345° North 387 445 43,000  Level Indianapolis Center
09:57PM 37.0131 -84.2417 345° North 388 447 43,000  Level Indianapolis Center
09:58PM 37.1172 -84.2783 344° North 390 449 43,000  Level Indianapolis Center
09:59PM 37.2242 -84.3164 344° North 396 456 43,000  Level Indianapolis Center
10:00PM 37.3300 -84.3550 344° North 396 456 43,000  Level Indianapolis Center
10:01PM 37.4556 -84.3986 345° North 399 459 43,000  Level Indianapolis Center
10:02PM 37.5625 -84.4364 344° North 398 458 43,000  Level Indianapolis Center
10:03PM 37.6708 -84.4736 345° North 401 461 43,000  Level Indianapolis Center
10:04PM 37.7789 -84.5114 345° North 402 463 43,000  Level Indianapolis Center
10:05PM 37.8853 -84.5533 343° North 400 460 43,000  Level Indianapolis Center
10:06PM 37.9953 -84.5914 345° North 406 467 43,000  Level Indianapolis Center
10:07PM 38.1042 -84.6303 344° North 406 467 43,000  Level Indianapolis Center
10:08PM 38.2150 -84.6686 345° North 410 472 43,000  Level Indianapolis Center
10:09PM 38.3253 -84.7078 344° North 410 472 43,000  Level Indianapolis Center
10:10PM 38.4367 -84.7472 344° North 412 474 43,000  Level Indianapolis Center
10:11PM 38.5453 -84.7872 344° North 407 468 43,000  Level Indianapolis Center
10:12PM 38.6578 -84.8294 344° North 406 467 43,000  Level Indianapolis Center
10:13PM 38.7669 -84.8700 344° North 405 466 43,000  Level Indianapolis Center
10:14PM 38.8786 -84.9097 345° North 411 473 43,000 -300 Level Indianapolis Center
10:15PM 38.9892 -84.9525 343° North 413 475 42,400 -780 Descending Indianapolis Center
10:16PM 39.0994 -84.9939 344° North 411 473 41,500 -960 Descending Indianapolis Center
10:17PM 39.2242 -85.0389 344° North 401 461 40,500 -1,020 Descending Indianapolis Center
10:18PM 39.3283 -85.0781 344° North 390 449 39,500 -1,080 Descending Indianapolis Center
10:19PM 39.4339 -85.1167 344° North 392 451 38,400 -1,080 Descending Indianapolis Center
10:20PM 39.5406 -85.1564 344° North 396 456 37,400 -1,080 Descending Indianapolis Center
10:21PM 39.6453 -85.1958 344° North 393 452 36,300 -1,140 Descending Indianapolis Center
10:22PM 39.7506 -85.2369 343° North 393 452 35,100 -1,200 Descending Indianapolis Center
10:23PM 39.8550 -85.2767 344° North 391 450 33,900 -1,260 Descending Indianapolis Center
10:24PM 39.9622 -85.3156 344° North 396 456 32,600 -1,380 Descending Indianapolis Center
10:25PM 40.0683 -85.3558 344° North 397 457 31,200 -1,500 Descending Indianapolis Center
10:26PM 40.1767 -85.3989 343° North 403 464 29,600 -1,620 Descending Indianapolis Center
10:27PM 40.2122 -85.4103 346° North 404 465 29,000 -1,620 Descending Chicago Center
10:28PM 40.3228 -85.4525 344° North 411 473 27,400 -1,500 Descending Chicago Center
10:29PM 40.4325 -85.4953 343° North 409 471 26,000 -1,440 Descending Chicago Center
10:30PM 40.5408 -85.5378 343° North 405 466 24,500 -1,620 Descending Chicago Center
10:31PM 40.6633 -85.5847 344° North 391 450 22,800 -1,680 Descending Chicago Center
10:32PM 40.7600 -85.6233 343° North 377 434 21,100 -1,800 Descending Chicago Center
10:33PM 40.8575 -85.6606 344° North 367 422 19,200 -1,980 Descending Chicago Center
10:34PM 40.9528 -85.6986 343° North 359 413 17,100 -2,100 Descending Chicago Center
10:35PM 41.0436 -85.7353 343° North 344 396 15,000 -2,040 Descending Chicago Center
10:36PM 41.1281 -85.7683 344° North 318 366 13,000 -1,800 Descending Chicago Center
10:37PM 41.2103 -85.8000 344° North 307 353 11,400 -1,020 Descending Chicago Center
10:38PM 41.2831 -85.8300 343° North 278 320 11,000 -240 Descending Chicago Center
10:39PM 41.3483 -85.8561 343° North 248 285 11,000  Level Chicago Center
10:40PM 41.4019 -85.8767 344° North 204 235 11,000 -420 Level Chicago Center
10:41PM 41.4611 -85.8989 344° North 215 247 10,200 -1,380 Descending Chicago Center
10:42PM 41.5286 -85.9036 357° North 241 277 8,200 -1,920 Descending Chicago Center
10:43PM 41.5892 -85.8414 38° Northeast 233 268 6,400 -1,860 Descending Chicago Center
10:44PM 41.6342 -85.7892 41° Northeast 224 258 4,500 -1,500 Descending Chicago Center
10:45PM 41.6861 -85.8022 349° North 202 232 3,400 -720 Descending Chicago Center
10:46PM 41.7175 -85.8386 319° Northwest 170 196 3,100 -600 Descending Chicago Center
10:47PM 41.7219 -85.8892 277° West 148 170 2,300 -720 Descending Chicago Center
10:48PM 41.7211 -85.9325 269° West 129 148 1,700 -600 Descending Chicago Center
10:49PM 41.7206 -85.9750 269° West 121 139 1,100 -360 Descending Chicago Center
10:50PM 41.7192 -86.0150 267° West 118 136 1,000 -120 Descending Chicago Center